Airfield :







YOU CAN JOIN US ON...

 
LOGIN :

Register | Disclaimer

   EN    FR    IT 

 









Legend :    VFR   Marginal VFR   IFR   Intensive IFR   Very Intensive IFR
Visi :
Ceiling :
>= 8 km
>= 3000ft
5 to 8 km
1000 to 3000 ft
1500m to 5 km
500 to 1000 ft
800 to 1500m
200 to 500 ft
< 800m
< 200 ft
Symbols :   Thunderstorms  Fog  Heavy snow  Heavy precipitations  Wind > 20 kt






- Airport Elevation : 377 ft
- IATA code : YPS


CYPD - Port Hawkesbury

CURRENT METAR :
  • 270316Z AUTO 14009KT 9SM OVC003 06/05 A2946 RMK SLP982

EXPIRED METARs :
  • 270309Z AUTO 13007KT 6SM -RA BR OVC003 06/05 A2947 RMK SLP984
  • 270301Z AUTO 13009KT 100V180 3SM -RA BR OVC003 06/05 A2947 RMK SLP985
  • 270253Z AUTO 15008KT 090V180 5SM BR OVC005 06/05 A2948 RMK SLP987
  • 270242Z AUTO 13005KT 100V210 5SM BR BKN005 BKN010 OVC017 06/06 A2948 RMK SLP988
  • 270234Z AUTO 18007G21KT 120V210 4SM BR BKN008 OVC016 06/06 A2949 RMK SLP990
  • 270220Z AUTO 17008G16KT 140V210 3SM -RA BR SCT003 SCT009 OVC017 06/06 A2949 RMK SLP991
  • 270215Z AUTO 17009G16KT 130V210 2SM -RA BR SCT003 SCT009 OVC017 06/06 A2949 RMK VIS VRB 1 1/2-3 SLP990
  • 270200Z AUTO 18010G21KT 130V210 1 3/4SM RA BR OVC003 07/06 A2949 RMK SLP993
  • 270100Z AUTO 13014G24KT 1 1/4SM -RA BR OVC003 05/05 A2952 RMK SLP004
  • 270049Z AUTO 14016G22KT 2SM -RA BR OVC003 05/05 A2953 RMK SLP007
  • 270043Z AUTO 13013G19KT 3SM -RA BR OVC003 05/05 A2954 RMK PRESFR SLP008

TAF N/A



MET'MAP, your aeronautical weather chart ! - Copyright ORBIFLY December 2007 - Disclaimer

ORBIFLY MET'MAP TEAM :

Programming & Development : Alexandra Zaïnal
Concept & original design : Baudouin d'Aumeries
Assistance for programming : Marc-Olivier Méhu
Technical & hardware support : Manuel Goepfert

Contact : metmap@orbifly.com




SOURCES & CREDITS :

   NOAA